Terminal Aerodrome Forecast
Issued by NWS Cleveland, OH

Home | Current Version | Previous Version | Graphics & Text | Print | Product List | Glossary On
Versions: 1 2 3 4 5 6 7 8 9 10 11 12 13 14 15
201
FTUS41 KCLE 251738
TAFYNG
TAF
KYNG 251738Z 2518/2618 26015G22KT P6SM OVC035
     FM251900 27020G30KT P6SM OVC025
      TEMPO 2519/2523 3SM -SHSN BKN015
     FM260200 27014G22KT P6SM OVC025=

USA.gov is the U.S. government's official web portal to all federal, state and local government web resources and services.